Time;durP1;ratioP1;P1;durP2;ratioP2;P2;SDS_P1;SDS_P2;PMS_P1;PMS_P2;Temp;Humidity;BMP_temperature;BMP_pressure;BME280_temperature;BME280_humidity;BME280_pressure;Samples;Min_cycle;Max_cycle;Signal;HPM_P1;HPM_P2
2024/04/04 00:00:27;;;;;;;2.20;0.70;;;;;;;11.03;100.00;100208.25;5055522;28;20568;-69
2024/04/04 00:02:53;;;;;;;2.87;0.50;;;;;;;11.03;100.00;100210.94;5055119;28;20312;-69
2024/04/04 00:05:20;;;;;;;2.10;0.30;;;;;;;10.97;100.00;100209.47;5055261;28;20523;-69
2024/04/04 00:07:46;;;;;;;2.10;0.40;;;;;;;10.93;100.00;100208.50;5055110;28;20552;-69
2024/04/04 00:10:12;;;;;;;2.10;0.30;;;;;;;10.90;100.00;100206.44;5055062;28;20452;-69
2024/04/04 00:12:42;;;;;;;2.10;0.30;;;;;;;10.90;100.00;100201.00;5054098;28;20224;-69
2024/04/04 00:15:10;;;;;;;2.10;0.30;;;;;;;10.93;100.00;100205.78;5054682;28;20926;-69
2024/04/04 00:17:35;;;;;;;2.30;0.50;;;;;;;10.91;100.00;100210.75;5054843;28;20451;-69
2024/04/04 00:20:02;;;;;;;2.03;0.30;;;;;;;10.95;100.00;100209.00;5054513;28;21061;-68
2024/04/04 00:22:27;;;;;;;2.13;0.37;;;;;;;10.95;100.00;100209.78;5055119;28;20258;-68
2024/04/04 00:24:54;;;;;;;2.50;0.90;;;;;;;10.96;100.00;100207.88;5055154;28;20466;-68
2024/04/04 00:27:20;;;;;;;2.10;0.30;;;;;;;10.96;100.00;100208.69;5054398;28;20299;-68
2024/04/04 00:29:48;;;;;;;2.10;0.30;;;;;;;10.98;100.00;100211.91;5054694;28;20478;-68
2024/04/04 00:32:13;;;;;;;2.10;0.40;;;;;;;10.99;100.00;100207.28;5054947;28;20250;-68
2024/04/04 00:34:40;;;;;;;2.10;0.30;;;;;;;10.98;100.00;100211.91;5054567;28;21016;-68
2024/04/04 00:37:07;;;;;;;2.30;0.50;;;;;;;10.94;100.00;100216.34;5054541;28;20295;-68
2024/04/04 00:39:34;;;;;;;2.10;0.40;;;;;;;10.93;100.00;100209.28;5054436;28;20439;-68
2024/04/04 00:41:59;;;;;;;2.20;0.40;;;;;;;10.93;100.00;100209.28;5054745;28;20525;-69
2024/04/04 00:44:26;;;;;;;2.10;0.40;;;;;;;10.96;100.00;100213.31;5054693;28;21038;-69
2024/04/04 00:46:53;;;;;;;2.10;0.30;;;;;;;10.99;100.00;100216.19;5054125;28;20211;-69
2024/04/04 00:49:21;;;;;;;2.10;0.50;;;;;;;11.02;100.00;100206.63;5054319;28;20816;-69
2024/04/04 00:51:47;;;;;;;2.07;0.30;;;;;;;11.00;100.00;100208.84;5054664;28;20435;-69
2024/04/04 00:54:14;;;;;;;2.10;0.30;;;;;;;11.01;100.00;100205.03;5054150;28;20484;-69
2024/04/04 00:56:39;;;;;;;2.10;0.40;;;;;;;10.97;100.00;100206.75;5054631;28;20465;-69
2024/04/04 00:59:11;;;;;;;2.10;0.40;;;;;;;10.94;100.00;100210.13;5054208;28;20476;-70
2024/04/04 01:01:37;;;;;;;2.10;0.40;;;;;;;10.86;100.00;100209.75;5053573;28;20212;-69
2024/04/04 01:04:05;;;;;;;2.10;0.30;;;;;;;10.79;100.00;100206.69;5053881;28;20466;-69
2024/04/04 01:06:31;;;;;;;2.10;0.30;;;;;;;10.77;100.00;100206.22;5054008;28;20227;-69
2024/04/04 01:09:00;;;;;;;2.10;0.40;;;;;;;10.79;100.00;100205.88;5054497;28;20445;-69
2024/04/04 01:11:26;;;;;;;2.10;0.40;;;;;;;10.73;100.00;100205.22;5054197;28;20457;-69
2024/04/04 01:13:52;;;;;;;2.10;0.30;;;;;;;10.67;100.00;100200.25;5053531;28;20466;-69
2024/04/04 01:16:19;;;;;;;2.10;0.30;;;;;;;10.66;100.00;100204.88;5053830;28;20250;-69
2024/04/04 01:18:46;;;;;;;2.20;0.47;;;;;;;10.64;100.00;100212.53;5054134;28;20446;-69
2024/04/04 01:21:13;;;;;;;2.10;0.30;;;;;;;10.65;100.00;100207.91;5053906;28;20485;-69
2024/04/04 01:23:41;;;;;;;2.10;0.30;;;;;;;10.60;100.00;100203.41;5053746;28;21031;-69
2024/04/04 01:26:07;;;;;;;2.30;0.40;;;;;;;10.56;100.00;100205.13;5053363;28;20465;-69
2024/04/04 01:28:33;;;;;;;2.20;0.50;;;;;;;10.56;100.00;100205.13;5053973;28;20438;-69
2024/04/04 01:30:59;;;;;;;2.10;0.40;;;;;;;10.56;100.00;100199.72;5053641;28;20231;-69
2024/04/04 01:33:26;;;;;;;2.20;0.47;;;;;;;10.57;100.00;100185.06;5053734;28;20563;-68
2024/04/04 01:35:51;;;;;;;2.10;0.40;;;;;;;10.58;100.00;100198.31;5053439;28;20739;-68
2024/04/04 01:38:18;;;;;;;2.10;0.40;;;;;;;10.57;100.00;100195.91;5053794;28;20529;-68
2024/04/04 01:40:45;;;;;;;2.20;0.50;;;;;;;10.54;100.00;100196.53;5053931;28;20219;-68
2024/04/04 01:43:12;;;;;;;2.93;0.70;;;;;;;10.54;100.00;100201.97;5053439;28;20891;-69
2024/04/04 01:45:37;;;;;;;2.03;0.30;;;;;;;10.57;100.00;100201.31;5068796;22;20824;-69
2024/04/04 01:48:04;;;;;;;2.10;0.50;;;;;;;10.57;100.00;100199.41;5013417;28;20506;-68
2024/04/04 01:50:30;;;;;;;2.40;0.50;;;;;;;10.63;100.00;100197.38;5013819;28;20197;-68
2024/04/04 01:52:57;;;;;;;2.00;0.30;;;;;;;10.68;100.00;100196.44;5013632;28;20523;-68
2024/04/04 01:55:23;;;;;;;3.50;0.77;;;;;;;10.64;100.00;100204.38;5013735;28;20267;-68
2024/04/04 01:57:51;;;;;;;2.10;0.40;;;;;;;10.68;100.00;100204.56;5013735;28;20852;-68
2024/04/04 02:00:16;;;;;;;2.00;0.30;;;;;;;10.68;100.00;100199.97;5013880;28;20229;-68
2024/04/04 02:02:43;;;;;;;2.20;0.50;;;;;;;10.71;100.00;100214.78;5013590;28;20467;-68
2024/04/04 02:05:08;;;;;;;2.00;0.30;;;;;;;10.72;100.00;100197.44;5013655;28;20212;-68
2024/04/04 02:07:35;;;;;;;2.10;0.30;;;;;;;10.71;100.00;100193.09;5013972;28;20531;-68
2024/04/04 02:10:04;;;;;;;2.00;0.30;;;;;;;10.70;100.00;100195.00;5013646;28;20209;-68
2024/04/04 02:12:31;;;;;;;2.50;0.63;;;;;;;10.71;100.00;100201.22;5013553;28;20865;-70
2024/04/04 02:14:58;;;;;;;2.10;0.30;;;;;;;10.70;100.00;100189.59;5013646;28;20467;-72
2024/04/04 02:17:24;;;;;;;2.10;0.50;;;;;;;10.75;100.00;100194.06;5013501;28;20578;-70
2024/04/04 02:19:50;;;;;;;2.00;0.30;;;;;;;10.76;100.00;100182.16;5013273;28;20479;-69
2024/04/04 02:22:16;;;;;;;2.10;0.40;;;;;;;10.75;100.00;100185.94;5013418;28;20577;-69
2024/04/04 02:24:42;;;;;;;2.03;0.40;;;;;;;10.74;100.00;100189.78;5014032;28;20209;-69
2024/04/04 02:27:09;;;;;;;2.10;0.50;;;;;;;10.71;100.00;100187.69;5013198;28;20448;-69
2024/04/04 02:29:35;;;;;;;2.20;0.63;;;;;;;10.72;100.00;100190.09;5013198;28;20581;-69
2024/04/04 02:32:03;;;;;;;2.50;0.60;;;;;;;10.73;100.00;100188.97;5013679;28;20515;-69
2024/04/04 02:34:28;;;;;;;2.00;0.30;;;;;;;10.77;100.00;100186.44;5014129;28;20296;-69
2024/04/04 02:36:55;;;;;;;2.20;0.50;;;;;;;10.76;100.00;100193.00;5017212;28;20631;-69
2024/04/04 02:39:20;;;;;;;2.03;0.30;;;;;;;10.76;100.00;100187.56;5016872;28;20666;-69
2024/04/04 02:41:47;;;;;;;2.10;0.40;;;;;;;10.75;100.00;100192.16;5017232;28;20482;-69
2024/04/04 02:44:13;;;;;;;2.70;0.50;;;;;;;10.73;100.00;100188.19;5016745;28;20225;-70
2024/04/04 02:46:40;;;;;;;2.10;0.40;;;;;;;10.75;100.00;100197.59;5016828;28;20460;-70
2024/04/04 02:49:07;;;;;;;2.03;0.30;;;;;;;10.78;100.00;100188.03;5017624;28;20385;-70
2024/04/04 02:51:33;;;;;;;2.10;0.47;;;;;;;10.80;100.00;100191.22;5016837;28;20432;-70
2024/04/04 02:53:59;;;;;;;2.30;0.70;;;;;;;10.78;100.00;100198.88;5017042;28;20463;-70
2024/04/04 02:56:26;;;;;;;3.27;0.80;;;;;;;10.75;100.00;100194.06;5016867;28;20502;-70
2024/04/04 02:58:51;;;;;;;2.30;0.80;;;;;;;10.73;100.00;100186.28;5016789;28;20209;-70
2024/04/04 03:01:18;;;;;;;2.10;0.40;;;;;;;10.73;100.00;100188.97;5016825;28;20895;-70
2024/04/04 03:03:44;;;;;;;2.10;0.40;;;;;;;10.75;100.00;100185.94;5016521;28;20643;-70
2024/04/04 03:06:12;;;;;;;2.10;0.30;;;;;;;10.71;100.00;100185.78;5016578;28;20528;-70
2024/04/04 03:08:37;;;;;;;2.03;0.30;;;;;;;10.69;100.00;100185.28;5016685;28;20209;-70
2024/04/04 03:11:05;;;;;;;2.20;0.50;;;;;;;10.64;100.00;100190.06;5016587;28;20522;-70
2024/04/04 03:13:30;;;;;;;2.10;0.50;;;;;;;10.59;100.00;100177.44;5016486;28;20723;-70
2024/04/04 03:15:58;;;;;;;3.43;0.87;;;;;;;10.53;100.00;100184.09;5016496;28;20534;-70
2024/04/04 03:18:24;;;;;;;2.10;0.50;;;;;;;10.48;100.00;100185.00;5016070;28;20371;-70
2024/04/04 03:20:50;;;;;;;2.10;0.30;;;;;;;10.48;100.00;100189.63;5016326;28;21069;-70
2024/04/04 03:23:17;;;;;;;2.10;0.30;;;;;;;10.45;100.00;100188.38;5016284;28;20502;-70
2024/04/04 03:25:44;;;;;;;2.10;0.40;;;;;;;10.44;100.00;100186.75;5016686;28;20444;-70
2024/04/04 03:28:10;;;;;;;2.10;0.40;;;;;;;10.39;100.00;100188.78;5016217;28;20531;-70
2024/04/04 03:30:36;;;;;;;2.80;0.47;;;;;;;10.37;100.00;100188.31;5016240;28;20999;-69
2024/04/04 03:33:03;;;;;;;2.10;0.30;;;;;;;10.30;100.00;100197.66;5016024;28;20225;-69
2024/04/04 03:35:29;;;;;;;2.10;0.30;;;;;;;10.26;100.00;100195.88;5016153;28;20448;-69
2024/04/04 03:37:55;;;;;;;2.30;0.67;;;;;;;10.20;100.00;100195.16;5016246;28;20444;-70
2024/04/04 03:40:23;;;;;;;2.10;0.40;;;;;;;10.18;100.00;100196.56;5015955;28;20534;-69
2024/04/04 03:42:49;;;;;;;2.10;0.30;;;;;;;10.15;100.00;100206.13;5016108;28;20316;-69
2024/04/04 03:45:15;;;;;;;2.30;0.63;;;;;;;10.09;100.00;100205.44;5016278;28;20479;-70
2024/04/04 03:47:42;;;;;;;2.23;0.70;;;;;;;10.04;100.00;100205.53;5014674;28;20484;-70
2024/04/04 03:50:08;;;;;;;2.10;0.40;;;;;;;9.97;100.00;100204.41;5015747;28;20744;-70
2024/04/04 03:52:34;;;;;;;2.10;0.30;;;;;;;9.92;100.00;100208.03;5015912;28;20751;-70
2024/04/04 03:55:00;;;;;;;2.20;0.40;;;;;;;9.92;100.00;100208.03;5015940;28;20205;-70
2024/04/04 03:57:28;;;;;;;2.10;0.40;;;;;;;9.95;100.00;100212.78;5015961;28;20531;-70
2024/04/04 03:59:54;;;;;;;2.10;0.40;;;;;;;9.95;100.00;100212.78;5015696;28;20443;-70
2024/04/04 04:02:20;;;;;;;2.20;0.50;;;;;;;10.00;100.00;100218.09;5015415;28;20513;-70
2024/04/04 04:04:46;;;;;;;2.10;0.40;;;;;;;10.06;100.00;100218.78;5015219;28;20296;-70
2024/04/04 04:07:12;;;;;;;2.10;0.40;;;;;;;10.08;100.00;100224.69;5015769;28;20538;-69
2024/04/04 04:09:38;;;;;;;2.10;0.30;;;;;;;10.11;100.00;100226.78;5015508;28;20216;-69
2024/04/04 04:12:05;;;;;;;2.20;0.53;;;;;;;10.11;100.00;100232.19;5015306;28;20535;-70
2024/04/04 04:14:32;;;;;;;2.30;0.43;;;;;;;10.15;100.00;100227.78;5015635;28;20244;-70
2024/04/04 04:16:59;;;;;;;2.10;0.40;;;;;;;10.20;100.00;100230.34;5015268;28;20452;-69
2024/04/04 04:19:25;;;;;;;2.10;0.30;;;;;;;10.20;100.00;100232.25;5015205;28;20879;-69
2024/04/04 04:21:51;;;;;;;2.13;0.40;;;;;;;10.21;100.00;100242.78;5015048;28;20483;-69
2024/04/04 04:24:17;;;;;;;2.20;0.57;;;;;;;10.26;100.00;100236.47;5014819;28;20313;-69
2024/04/04 04:26:43;;;;;;;2.47;0.73;;;;;;;10.26;100.00;100245.38;5015178;28;20450;-69
2024/04/04 04:29:11;;;;;;;2.80;0.80;;;;;;;10.31;100.00;100242.59;5015093;28;20241;-69
2024/04/04 04:31:39;;;;;;;3.70;1.30;;;;;;;10.33;100.00;100250.38;5015304;28;20535;-70
2024/04/04 04:34:05;;;;;;;2.23;0.60;;;;;;;10.35;100.00;100246.25;5014856;28;20539;-70
2024/04/04 04:36:33;;;;;;;2.40;0.70;;;;;;;10.38;100.00;100241.34;5015367;28;20531;-70
2024/04/04 04:38:59;;;;;;;3.47;0.87;;;;;;;10.39;100.00;100248.34;5015131;28;20263;-70
2024/04/04 04:41:25;;;;;;;2.60;1.00;;;;;;;10.37;100.00;100253.28;5014799;28;20996;-69
2024/04/04 04:43:51;;;;;;;2.10;0.50;;;;;;;10.40;100.00;100248.03;5014763;28;20311;-70
2024/04/04 04:46:18;;;;;;;2.23;0.43;;;;;;;10.39;100.00;100245.63;5014572;28;20563;-69
2024/04/04 04:48:46;;;;;;;2.10;0.40;;;;;;;10.35;100.00;100253.56;5014499;28;20486;-69
2024/04/04 04:51:13;;;;;;;2.30;0.60;;;;;;;10.30;100.00;100254.50;5014923;28;20444;-69
2024/04/04 04:53:40;;;;;;;2.20;0.60;;;;;;;10.29;100.00;100260.22;5014955;28;20466;-69
2024/04/04 04:56:07;;;;;;;2.20;0.60;;;;;;;10.27;100.00;100263.25;5015096;28;20476;-70
2024/04/04 04:58:34;;;;;;;2.50;0.70;;;;;;;10.28;100.00;100258.63;5014263;28;20998;-70
2024/04/04 05:01:01;;;;;;;2.57;1.07;;;;;;;10.28;100.00;100259.44;5014789;28;20480;-70
2024/04/04 05:03:28;;;;;;;2.20;0.57;;;;;;;10.35;100.00;100254.38;5014487;28;20468;-70
2024/04/04 05:05:57;;;;;;;8.13;2.07;;;;;;;10.40;100.00;100249.94;5014701;28;20495;-70
2024/04/04 05:08:22;;;;;;;2.10;0.50;;;;;;;10.42;100.00;100256.66;5014748;28;20440;-70
2024/04/04 05:10:49;;;;;;;2.60;0.70;;;;;;;10.45;100.00;100257.97;5014000;28;20498;-70
2024/04/04 05:13:15;;;;;;;2.60;0.70;;;;;;;10.49;100.00;100259.75;5014448;28;20236;-70
2024/04/04 05:15:46;;;;;;;2.30;0.73;;;;;;;10.49;100.00;100261.63;5014017;28;20444;-69
2024/04/04 05:18:12;;;;;;;2.40;1.00;;;;;;;10.54;100.00;100266.94;5014222;28;20288;-69
2024/04/04 05:20:39;;;;;;;2.37;0.57;;;;;;;10.54;100.00;100272.38;5014473;28;21015;-69
2024/04/04 05:23:06;;;;;;;2.70;1.57;;;;;;;10.57;100.00;100267.09;5014374;28;20256;-69
2024/04/04 05:25:32;;;;;;;2.10;0.40;;;;;;;10.52;100.00;100263.72;5014452;28;20448;-69
2024/04/04 05:27:58;;;;;;;2.23;0.80;;;;;;;10.54;100.00;100275.06;5013785;28;21003;-69
2024/04/04 05:30:26;;;;;;;2.70;1.10;;;;;;;10.53;100.00;100265.31;5014045;28;20458;-69
2024/04/04 05:32:52;;;;;;;2.20;0.50;;;;;;;10.57;100.00;100271.72;5013689;28;20315;-69
2024/04/04 05:35:19;;;;;;;2.47;0.90;;;;;;;10.61;100.00;100278.94;5013819;28;20818;-69
2024/04/04 05:37:45;;;;;;;2.70;1.03;;;;;;;10.64;100.00;100279.44;5013965;28;20445;-69
2024/04/04 05:40:13;;;;;;;2.10;0.40;;;;;;;10.63;100.00;100286.75;5014002;28;20519;-69
2024/04/04 05:42:38;;;;;;;2.17;0.63;;;;;;;10.68;100.00;100289.34;5013844;28;20279;-69
2024/04/04 05:45:06;;;;;;;2.50;1.00;;;;;;;10.70;100.00;100287.09;5014289;28;20480;-69
2024/04/04 05:47:32;;;;;;;2.17;0.57;;;;;;;10.78;100.00;100285.56;5013527;28;20721;-69
2024/04/04 05:49:58;;;;;;;2.30;0.67;;;;;;;10.82;100.00;100289.25;5013501;28;20543;-69
2024/04/04 05:52:24;;;;;;;2.10;0.40;;;;;;;10.83;100.00;100291.66;5013433;28;20261;-69
2024/04/04 05:54:52;;;;;;;3.27;0.77;;;;;;;10.88;100.00;100289.94;5014080;28;20530;-69
2024/04/04 05:57:19;;;;;;;2.07;0.50;;;;;;;10.81;100.00;100288.47;5013769;28;20228;-69
2024/04/04 05:59:46;;;;;;;2.10;0.50;;;;;;;10.79;100.00;100290.66;5013752;28;20480;-69
2024/04/04 06:02:12;;;;;;;2.80;0.83;;;;;;;10.78;100.00;100289.06;5013612;28;20566;-69
2024/04/04 06:04:39;;;;;;;2.10;0.40;;;;;;;10.75;100.00;100288.88;5013737;28;21224;-69
2024/04/04 06:07:05;;;;;;;2.10;0.40;;;;;;;10.74;100.00;100288.09;5013815;28;20208;-71
2024/04/04 06:09:32;;;;;;;2.30;0.60;;;;;;;10.72;100.00;100292.25;5014717;28;20448;-69
2024/04/04 06:11:57;;;;;;;2.30;0.67;;;;;;;10.75;100.00;100295.09;5017536;28;20295;-73
2024/04/04 06:14:25;;;;;;;2.60;0.90;;;;;;;10.81;100.00;100287.69;5017956;28;20523;-70
2024/04/04 06:16:51;;;;;;;2.77;1.00;;;;;;;10.88;100.00;100287.22;5017496;28;20216;-68
2024/04/04 06:19:17;;;;;;;2.27;0.60;;;;;;;10.94;100.00;100283.28;5018139;28;20530;-67
2024/04/04 06:21:43;;;;;;;2.13;0.53;;;;;;;10.98;100.00;100281.53;5017217;28;20229;-67
2024/04/04 06:24:10;;;;;;;2.17;0.50;;;;;;;10.98;100.00;100285.06;5017015;28;20559;-67
2024/04/04 06:26:35;;;;;;;2.20;0.50;;;;;;;11.03;100.00;100284.13;5017320;28;20579;-67
2024/04/04 06:29:02;;;;;;;2.10;0.50;;;;;;;11.08;100.00;100284.78;5017187;28;20527;-67
2024/04/04 06:31:29;;;;;;;2.30;0.60;;;;;;;11.16;100.00;100288.66;5017405;28;20227;-69
2024/04/04 06:33:56;;;;;;;2.33;0.70;;;;;;;11.17;100.00;100279.41;5017265;28;20470;-70
2024/04/04 06:36:21;;;;;;;2.30;0.50;;;;;;;11.25;100.00;100281.34;5017259;28;20995;-70
2024/04/04 06:38:48;;;;;;;3.37;1.20;;;;;;;11.30;100.00;100283.94;5017158;28;20526;-69
2024/04/04 06:41:13;;;;;;;2.57;0.83;;;;;;;11.34;100.00;100289.53;5017569;28;20312;-70
2024/04/04 06:43:40;;;;;;;2.70;0.80;;;;;;;11.42;100.00;100288.75;5016999;28;20543;-72
2024/04/04 06:46:06;;;;;;;2.50;0.57;;;;;;;11.47;100.00;100287.81;5016606;28;20673;-71
2024/04/04 06:48:40;;;;;;;3.33;0.93;;;;;;;11.52;100.00;100282.25;5017163;28;20450;-71
2024/04/04 06:51:06;;;;;;;3.17;1.33;;;;;;;11.54;100.00;100290.84;5016995;28;20189;-70
2024/04/04 06:53:32;;;;;;;2.10;0.40;;;;;;;11.59;100.00;100285.28;5017098;28;20554;-70
2024/04/04 06:55:58;;;;;;;4.70;0.90;;;;;;;11.63;100.00;100286.25;5016574;28;20668;-70
2024/04/04 06:58:25;;;;;;;2.73;0.80;;;;;;;11.65;100.00;100285.97;5017011;28;20443;-69
2024/04/04 07:00:55;;;;;;;3.63;0.80;;;;;;;11.73;100.00;100296.84;5016312;28;20576;-69
2024/04/04 07:03:22;;;;;;;2.00;0.40;;;;;;;11.83;100.00;100298.47;5017029;28;20856;-69
2024/04/04 07:05:49;;;;;;;2.40;0.63;;;;;;;11.90;99.52;100290.66;5016852;28;20530;-69
2024/04/04 07:08:15;;;;;;;2.10;0.50;;;;;;;11.98;97.74;100289.88;5016603;28;20459;-70
2024/04/04 07:10:41;;;;;;;2.43;0.67;;;;;;;12.04;97.69;100290.50;5016667;28;20448;-70
2024/04/04 07:13:07;;;;;;;2.10;0.50;;;;;;;12.02;97.14;100281.91;5016585;28;20464;-70
2024/04/04 07:15:33;;;;;;;2.40;0.90;;;;;;;12.05;96.52;100290.22;5016527;28;20252;-70
2024/04/04 07:18:00;;;;;;;2.30;0.57;;;;;;;12.14;96.42;100295.66;5016444;28;20956;-70
2024/04/04 07:20:27;;;;;;;2.20;0.60;;;;;;;12.22;95.58;100302.19;5016394;28;20216;-69
2024/04/04 07:22:54;;;;;;;6.43;1.27;;;;;;;12.33;94.79;100289.91;5016172;28;20549;-70
2024/04/04 07:25:20;;;;;;;3.53;0.90;;;;;;;12.38;95.62;100301.38;5016271;28;20932;-70
2024/04/04 07:27:46;;;;;;;2.20;0.53;;;;;;;12.47;96.04;100300.59;5016290;28;20448;-70
2024/04/04 07:30:14;;;;;;;2.30;0.53;;;;;;;12.56;95.90;100304.91;5016680;28;20448;-70
2024/04/04 07:32:39;;;;;;;3.27;1.70;;;;;;;12.62;93.12;100295.47;5016089;28;20308;-70
2024/04/04 07:35:06;;;;;;;2.30;0.63;;;;;;;12.71;94.02;100302.81;5016593;28;21011;-70
2024/04/04 07:37:31;;;;;;;2.53;0.90;;;;;;;12.74;92.20;100311.09;5016082;28;20336;-69
2024/04/04 07:39:59;;;;;;;2.80;0.80;;;;;;;12.84;89.35;100301.84;5016051;28;20439;-70
2024/04/04 07:42:25;;;;;;;3.00;0.90;;;;;;;12.93;88.36;100304.53;5015569;28;20229;-70
2024/04/04 07:44:52;;;;;;;2.40;0.73;;;;;;;13.02;87.99;100308.03;5015977;28;20653;-70
2024/04/04 07:47:17;;;;;;;2.20;0.50;;;;;;;13.08;86.36;100312.16;5015723;28;20647;-69
2024/04/04 07:49:44;;;;;;;2.40;0.50;;;;;;;13.02;86.28;100310.75;5015633;28;21020;-69
2024/04/04 07:52:09;;;;;;;3.10;0.83;;;;;;;13.01;88.33;100309.13;5015723;28;20202;-69
2024/04/04 07:54:36;;;;;;;2.77;0.90;;;;;;;12.96;89.50;100314.75;5016050;28;20538;-69
2024/04/04 07:57:03;;;;;;;2.20;0.40;;;;;;;13.02;90.32;100317.00;5016234;28;20283;-69
2024/04/04 07:59:30;;;;;;;5.07;1.40;;;;;;;13.11;88.91;100311.53;5015280;28;20535;-69
2024/04/04 08:01:56;;;;;;;2.40;0.70;;;;;;;13.18;86.52;100311.00;5015487;28;21015;-70
2024/04/04 08:04:22;;;;;;;2.20;0.47;;;;;;;13.20;86.04;100325.91;5015530;28;20519;-69
2024/04/04 08:06:48;;;;;;;2.27;0.40;;;;;;;13.26;85.13;100319.19;5015164;28;20677;-69
2024/04/04 08:09:15;;;;;;;2.57;0.60;;;;;;;13.31;85.24;100326.34;5015451;28;20495;-69
2024/04/04 08:11:41;;;;;;;2.33;0.50;;;;;;;13.30;85.81;100313.88;5015616;28;20229;-69
2024/04/04 08:14:09;;;;;;;2.97;0.50;;;;;;;13.33;83.71;100307.81;5015376;28;20472;-69
2024/04/04 08:16:35;;;;;;;2.20;0.40;;;;;;;13.38;82.66;100302.19;5015377;28;20515;-69
2024/04/04 08:19:01;;;;;;;2.20;0.50;;;;;;;13.38;84.43;100311.13;5015258;28;20944;-69
2024/04/04 08:21:27;;;;;;;2.10;0.30;;;;;;;13.48;82.00;100301.00;5015210;28;20219;-70
2024/04/04 08:23:53;;;;;;;2.20;0.50;;;;;;;13.55;80.16;100293.94;5014827;28;20551;-70
2024/04/04 08:26:22;;;;;;;2.13;0.40;;;;;;;13.68;80.58;100294.84;5015131;28;20207;-69
2024/04/04 08:28:49;;;;;;;2.60;0.40;;;;;;;13.79;79.33;100287.88;5014870;28;20491;-70
2024/04/04 08:31:16;;;;;;;2.20;0.40;;;;;;;13.96;78.76;100284.25;5015433;28;20534;-69
2024/04/04 08:33:42;;;;;;;2.10;0.40;;;;;;;14.09;79.99;100282.41;5014655;28;20468;-69
2024/04/04 08:36:08;;;;;;;2.77;0.60;;;;;;;14.25;79.64;100288.03;5014935;28;20531;-69
2024/04/04 08:38:35;;;;;;;2.20;0.40;;;;;;;14.36;78.79;100279.13;5014952;28;20531;-73
2024/04/04 08:41:07;;;;;;;2.20;0.43;;;;;;;14.43;77.36;100277.78;5015122;28;20303;-69
2024/04/04 08:43:34;;;;;;;2.20;0.40;;;;;;;14.44;75.95;100285.63;5014487;28;20908;-70
2024/04/04 08:46:01;;;;;;;2.20;0.50;;;;;;;14.45;76.32;100287.22;5014660;28;20454;-70
2024/04/04 08:48:29;;;;;;;2.20;0.40;;;;;;;14.37;72.60;100290.81;5014781;28;20468;-69
2024/04/04 08:50:55;;;;;;;2.20;0.40;;;;;;;14.35;73.81;100288.44;5014824;28;20531;-69
2024/04/04 08:53:24;;;;;;;2.17;0.33;;;;;;;14.48;74.87;100300.22;5014624;28;20826;-69
2024/04/04 08:55:51;;;;;;;2.20;0.40;;;;;;;14.53;78.50;100296.50;5014471;28;20479;-69
2024/04/04 08:58:19;;;;;;;2.20;0.40;;;;;;;14.70;74.63;100285.44;5014359;28;20566;-69
2024/04/04 09:00:46;;;;;;;2.30;0.60;;;;;;;14.69;77.38;100291.19;5014617;28;20539;-69
2024/04/04 09:03:13;;;;;;;2.30;0.50;;;;;;;14.73;74.19;100292.91;5014010;28;20854;-70
2024/04/04 09:05:43;;;;;;;2.20;0.40;;;;;;;14.82;73.42;100285.44;5015263;28;20444;-69
2024/04/04 09:08:10;;;;;;;2.23;0.50;;;;;;;14.87;70.69;100279.78;5014733;28;20440;-69
2024/04/04 09:10:36;;;;;;;2.30;0.70;;;;;;;14.84;71.63;100277.75;5014421;28;20893;-69
2024/04/04 09:13:04;;;;;;;2.40;0.63;;;;;;;15.00;73.29;100269.69;5014430;28;20875;-69
2024/04/04 09:15:30;;;;;;;2.30;0.50;;;;;;;15.07;70.18;100271.88;5014262;28;20523;-69
2024/04/04 09:18:04;;;;;;;2.20;0.40;;;;;;;15.07;69.03;100274.59;5014289;28;20524;-69
2024/04/04 09:20:30;;;;;;;2.13;0.40;;;;;;;15.06;69.55;100273.00;5014522;28;20189;-69
2024/04/04 09:23:00;;;;;;;2.43;0.50;;;;;;;15.10;69.51;100273.94;5014416;28;20496;-69
2024/04/04 09:25:26;;;;;;;2.10;0.30;;;;;;;15.17;71.77;100278.81;5014424;28;20450;-69
2024/04/04 09:27:53;;;;;;;2.10;0.30;;;;;;;15.13;66.89;100281.41;5014294;28;20519;-69
2024/04/04 09:30:19;;;;;;;2.10;0.30;;;;;;;15.16;67.94;100277.22;5014025;28;20534;-70
2024/04/04 09:32:46;;;;;;;2.10;0.30;;;;;;;15.19;66.33;100273.81;5013836;28;21015;-69
2024/04/04 09:35:13;;;;;;;2.30;0.50;;;;;;;15.29;68.87;100274.16;5014054;28;20225;-70
2024/04/04 09:37:40;;;;;;;2.57;0.47;;;;;;;15.41;67.54;100261.69;5013768;28;20511;-69
2024/04/04 09:40:10;;;;;;;2.10;0.30;;;;;;;15.47;67.30;100266.56;5014236;28;20543;-69
2024/04/04 09:42:41;;;;;;;2.10;0.37;;;;;;;15.49;67.08;100258.81;5014137;28;20523;-69
2024/04/04 09:45:07;;;;;;;2.23;0.43;;;;;;;15.39;67.01;100262.00;5014066;28;20430;-69
2024/04/04 09:47:35;;;;;;;2.30;0.60;;;;;;;15.30;66.32;100267.56;5013801;28;20451;-69
2024/04/04 09:50:03;;;;;;;2.17;0.40;;;;;;;15.17;65.30;100276.09;5013721;28;20535;-69
2024/04/04 09:52:34;;;;;;;2.60;0.40;;;;;;;14.96;65.90;100276.16;5013975;28;20472;-69
2024/04/04 09:55:00;;;;;;;2.10;0.40;;;;;;;14.89;66.42;100274.00;5013823;28;20511;-69
2024/04/04 09:57:29;;;;;;;2.30;0.50;;;;;;;14.81;69.69;100267.50;5013627;28;20808;-69
2024/04/04 10:00:14;;;;;;;2.10;0.40;;;;;;;14.65;68.49;100263.81;5013500;28;20872;-69
2024/04/04 10:02:44;;;;;;;2.10;0.30;;;;;;;14.57;70.96;100262.78;5014099;28;20488;-69
2024/04/04 10:05:15;;;;;;;2.10;0.30;;;;;;;14.51;73.61;100263.31;5013621;28;20447;-69
2024/04/04 10:07:44;;;;;;;2.10;0.30;;;;;;;14.45;70.22;100259.19;5013309;28;20444;-69
2024/04/04 10:10:19;;;;;;;2.20;0.40;;;;;;;14.40;70.80;100252.00;5013487;28;20440;-69
2024/04/04 10:12:50;;;;;;;2.20;0.40;;;;;;;14.41;70.46;100245.41;5013527;28;20566;-69
2024/04/04 10:15:16;;;;;;;2.43;0.57;;;;;;;14.50;72.13;100248.09;5014014;28;20461;-69
2024/04/04 10:17:47;;;;;;;2.40;0.50;;;;;;;14.51;73.94;100238.78;5013778;28;20456;-69
2024/04/04 10:20:12;;;;;;;2.20;0.40;;;;;;;14.51;76.32;100245.03;5013727;28;20984;-70
2024/04/04 10:22:40;;;;;;;2.10;0.30;;;;;;;14.53;74.54;100239.25;5013282;28;20563;-69
2024/04/04 10:25:06;;;;;;;2.10;0.30;;;;;;;14.53;73.24;100241.97;5013069;28;20665;-69
2024/04/04 10:27:33;;;;;;;2.13;0.40;;;;;;;14.48;73.25;100234.00;5013074;28;20450;-69
2024/04/04 10:30:00;;;;;;;2.20;0.40;;;;;;;14.50;75.47;100237.97;5013730;28;20443;-70
2024/04/04 10:32:30;;;;;;;2.43;0.50;;;;;;;14.48;74.63;100223.91;5013631;28;20487;-70
2024/04/04 10:35:00;;;;;;;2.17;0.40;;;;;;;14.44;76.63;100224.88;5013653;28;20781;-69
2024/04/04 10:37:26;;;;;;;2.30;0.50;;;;;;;14.44;79.88;100220.22;5013522;28;20452;-70
2024/04/04 10:39:52;;;;;;;2.10;0.40;;;;;;;14.44;83.81;100224.88;5013129;28;20444;-70
2024/04/04 10:42:22;;;;;;;2.10;0.30;;;;;;;14.28;86.72;100228.22;5013028;28;20488;-70
2024/04/04 10:44:50;;;;;;;2.13;0.40;;;;;;;14.10;87.31;100226.78;5013354;28;20216;-69
2024/04/04 10:47:18;;;;;;;3.33;0.50;;;;;;;13.94;88.92;100223.06;5013784;28;20477;-70
2024/04/04 10:49:44;;;;;;;2.20;0.40;;;;;;;13.78;91.51;100226.38;5013128;28;21002;-70
2024/04/04 10:52:11;;;;;;;2.30;0.60;;;;;;;13.62;92.69;100228.88;5013470;28;20440;-70
2024/04/04 10:54:37;;;;;;;2.30;0.60;;;;;;;13.50;95.51;100225.28;5013441;28;20201;-70
2024/04/04 10:57:04;;;;;;;2.30;0.50;;;;;;;13.41;96.23;100219.88;5016234;28;20643;-70
2024/04/04 10:59:30;;;;;;;2.20;0.40;;;;;;;13.30;97.30;100224.91;5017398;28;20522;-70
2024/04/04 11:01:56;;;;;;;2.40;0.60;;;;;;;13.26;98.81;100221.25;5017218;28;20534;-70
2024/04/04 11:04:24;;;;;;;2.20;0.43;;;;;;;13.23;99.65;100221.91;5016744;28;20211;-70
2024/04/04 11:06:52;;;;;;;3.43;0.70;;;;;;;13.17;99.77;100211.53;5016878;28;20446;-70
2024/04/04 11:09:20;;;;;;;2.40;0.50;;;;;;;13.09;100.00;100215.88;5016652;28;20462;-70
2024/04/04 11:11:48;;;;;;;2.30;0.43;;;;;;;12.99;100.00;100216.22;5017151;28;20535;-70
2024/04/04 11:14:14;;;;;;;2.50;0.60;;;;;;;12.88;100.00;100211.16;5016149;28;20535;-69
2024/04/04 11:16:41;;;;;;;2.10;0.40;;;;;;;12.79;100.00;100201.41;5016359;28;20535;-69